Edmond, Oklahoma
Current Conditions -  °F | °C
As of 8:53 AM on Sunday 21 Dec 2014 (Local Time) from KPWA Reporting Station
Haze Haze  
Wind Chill: 37°   Ceiling: 600
Heat Index: 45°   Visibility: 4mi
Dew Point: 41°   Wind: 21mph
Humidity: 86%   Direction: 170°S
Pressure: 29.99"   Gusts: 26mph
Location:  35.65°N, 97.48°W
Report Text: KPWA 211453Z 17018G23KT 4SM BR OVC006 07/05 A2999 RMK AO2 SLP157 T00720050 58015
Loading
Personal Weather Stations






























Interactive Weather Map New forecast layout! Learn more

10-Day Weather Forecast

Advertisements
Track Severe Weather on mobile